Terminal Aerodrome Forecast
Issued by NWS Blacksburg, VA

Home | Current Version | Previous Version | Text Only | Print | Product List | Glossary On
Versions: 1 2 3 4 5 6 7 8 9 10 11 12 13 14 15 16 17
000
FTUS41 KRNK 192327
TAFDAN
TAF
KDAN 192327Z 2000/2024 00000KT 5SM BR OVC008
     FM200800 00000KT 3SM BR OVC005
      TEMPO 2010/2012 1SM BR OVC003
     FM201500 20005KT P6SM BKN003
     FM201900 21009KT P6SM BKN008
     FM202100 20008KT P6SM BKN010=

USA.gov is the U.S. government's official web portal to all federal, state and local government web resources and services.